createdAt,value
2019-03-20T00:00:29.971Z,12.84
2019-03-20T00:02:59.552Z,12.83
2019-03-20T00:05:29.038Z,12.62
2019-03-20T00:07:58.490Z,12.61
2019-03-20T00:10:28.721Z,12.61
2019-03-20T00:12:58.176Z,12.59
2019-03-20T00:15:27.609Z,12.51
2019-03-20T00:17:57.115Z,12.49
2019-03-20T00:20:26.916Z,12.52
2019-03-20T00:22:56.310Z,12.52
2019-03-20T00:25:25.802Z,12.65
2019-03-20T00:27:55.283Z,12.68
2019-03-20T00:30:24.839Z,12.68
2019-03-20T00:32:54.363Z,12.70
2019-03-20T00:35:23.801Z,12.69
2019-03-20T00:37:53.244Z,12.61
2019-03-20T00:40:22.717Z,12.61
2019-03-20T00:42:52.169Z,12.54
2019-03-20T00:45:22.549Z,12.54
2019-03-20T00:47:51.999Z,12.58
2019-03-20T00:50:21.997Z,12.51
2019-03-20T00:52:51.456Z,12.52
2019-03-20T00:55:21.272Z,12.48
2019-03-20T00:57:50.787Z,12.42
2019-03-20T01:00:43.634Z,12.32
2019-03-20T01:03:13.063Z,12.26
2019-03-20T01:05:42.563Z,12.09
2019-03-20T01:08:11.981Z,12.00
2019-03-20T01:10:41.487Z,11.99
2019-03-20T01:13:10.940Z,11.88
2019-03-20T01:15:40.405Z,11.79
2019-03-20T01:18:09.879Z,11.75
2019-03-20T01:20:39.323Z,11.75
2019-03-20T01:23:08.853Z,11.69
2019-03-20T01:25:38.369Z,11.72
2019-03-20T01:28:07.810Z,11.73
2019-03-20T01:30:40.380Z,11.68
2019-03-20T01:33:13.977Z,11.64
2019-03-20T01:35:43.449Z,11.53
2019-03-20T01:38:12.950Z,11.43
2019-03-20T01:40:42.389Z,11.35
2019-03-20T01:43:11.864Z,11.27
2019-03-20T01:45:41.360Z,11.15
2019-03-20T01:48:10.805Z,11.13
2019-03-20T01:50:40.250Z,11.12
2019-03-20T01:53:09.717Z,11.21
2019-03-20T01:55:39.176Z,11.22
2019-03-20T01:58:08.674Z,11.26
2019-03-20T02:00:38.455Z,11.31
2019-03-20T02:03:07.908Z,11.30
2019-03-20T02:05:37.360Z,11.28
2019-03-20T02:08:06.904Z,11.21
2019-03-20T02:10:36.439Z,11.15
2019-03-20T02:13:06.034Z,11.21
2019-03-20T02:15:39.354Z,11.26
2019-03-20T02:18:06.630Z,11.31
2019-03-20T02:20:36.142Z,11.29
2019-03-20T02:23:05.572Z,11.22
2019-03-20T02:25:35.026Z,11.20
2019-03-20T02:28:04.466Z,11.03
2019-03-20T02:30:33.927Z,10.96
2019-03-20T02:33:03.377Z,10.99
2019-03-20T02:35:32.830Z,10.84
2019-03-20T02:38:02.347Z,10.83
2019-03-20T02:40:31.836Z,10.69
2019-03-20T02:43:01.340Z,10.60
2019-03-20T02:45:30.769Z,10.64
2019-03-20T02:48:00.298Z,10.50
2019-03-20T02:50:29.788Z,10.38
2019-03-20T02:52:59.397Z,10.17
2019-03-20T02:55:28.811Z,10.11
2019-03-20T02:57:58.314Z,10.01
2019-03-20T03:00:27.780Z,9.98
2019-03-20T03:02:57.221Z,10.06
2019-03-20T03:05:26.655Z,10.17
2019-03-20T03:07:56.113Z,10.18
2019-03-20T03:10:25.638Z,10.16
2019-03-20T03:12:55.085Z,10.09
2019-03-20T03:15:24.579Z,10.11
2019-03-20T03:17:54.086Z,10.00
2019-03-20T03:20:23.540Z,10.08
2019-03-20T03:22:53.017Z,9.98
2019-03-20T03:25:22.450Z,9.84
2019-03-20T03:27:51.901Z,9.65
2019-03-20T03:30:21.355Z,9.53
2019-03-20T03:32:50.801Z,9.40
2019-03-20T03:35:20.544Z,9.40
2019-03-20T03:37:50.167Z,9.41
2019-03-20T03:40:20.615Z,9.46
2019-03-20T03:42:50.216Z,9.48
2019-03-20T03:45:19.668Z,9.37
2019-03-20T03:47:49.105Z,9.34
2019-03-20T03:50:18.525Z,9.36
2019-03-20T03:52:47.981Z,9.28
2019-03-20T03:55:17.468Z,9.23
2019-03-20T03:57:46.977Z,9.23
2019-03-20T04:00:18.544Z,9.13
2019-03-20T04:02:47.980Z,9.09
2019-03-20T04:05:17.709Z,9.07
2019-03-20T04:07:47.257Z,9.16
2019-03-20T04:10:17.619Z,9.25
2019-03-20T04:12:47.165Z,9.21
2019-03-20T04:15:17.164Z,9.17
2019-03-20T04:17:46.658Z,9.16
2019-03-20T04:20:18.101Z,9.24
2019-03-20T04:22:47.722Z,9.21
2019-03-20T04:25:17.305Z,9.24
2019-03-20T04:27:46.821Z,9.25
2019-03-20T04:30:18.411Z,9.30
2019-03-20T04:32:47.986Z,9.27
2019-03-20T04:35:17.496Z,9.29
2019-03-20T04:37:47.052Z,9.28
2019-03-20T04:40:18.365Z,9.25
2019-03-20T04:42:47.860Z,9.22
2019-03-20T04:45:17.788Z,9.14
2019-03-20T04:47:47.320Z,9.10
2019-03-20T04:50:17.313Z,8.98
2019-03-20T04:52:46.871Z,8.96
2019-03-20T04:55:16.306Z,9.00
2019-03-20T04:57:46.202Z,9.03
2019-03-20T05:00:18.701Z,9.09
2019-03-20T05:02:48.140Z,9.21
2019-03-20T05:05:17.582Z,9.26
2019-03-20T05:07:47.052Z,9.24
2019-03-20T05:10:21.016Z,9.07
2019-03-20T05:12:50.462Z,9.21
2019-03-20T05:15:19.969Z,9.29
2019-03-20T05:17:49.476Z,9.21
2019-03-20T05:20:22.605Z,9.29
2019-03-20T05:22:52.138Z,9.43
2019-03-20T05:25:21.646Z,9.37
2019-03-20T05:27:51.099Z,9.44
2019-03-20T05:30:20.679Z,9.81
2019-03-20T05:32:50.138Z,10.08
2019-03-20T05:35:19.608Z,10.23
2019-03-20T05:37:49.103Z,10.41
2019-03-20T05:40:19.631Z,10.45
2019-03-20T05:42:49.098Z,10.49
2019-03-20T05:45:19.321Z,10.63
2019-03-20T05:47:48.780Z,10.73
2019-03-20T05:50:18.455Z,10.83
2019-03-20T05:52:47.888Z,10.96
2019-03-20T05:55:17.371Z,11.21
2019-03-20T05:57:46.959Z,11.32
2019-03-20T06:00:40.007Z,11.55
2019-03-20T06:03:09.477Z,11.93
2019-03-20T06:05:38.940Z,12.08
2019-03-20T06:08:08.461Z,11.76
2019-03-20T06:10:37.892Z,11.83
2019-03-20T06:13:07.340Z,11.77
2019-03-20T06:15:36.853Z,11.75
2019-03-20T06:18:06.295Z,11.73
2019-03-20T06:20:35.759Z,11.68
2019-03-20T06:23:05.216Z,11.86
2019-03-20T06:25:34.664Z,11.80
2019-03-20T06:28:04.111Z,11.90
2019-03-20T06:30:33.529Z,11.90
2019-03-20T06:33:02.962Z,11.71
2019-03-20T06:35:32.419Z,12.02
2019-03-20T06:38:01.839Z,12.00
2019-03-20T06:40:31.333Z,12.03
2019-03-20T06:43:00.765Z,12.26
2019-03-20T06:45:30.231Z,12.29
2019-03-20T06:47:59.657Z,12.42
2019-03-20T06:50:29.126Z,12.28
2019-03-20T06:52:58.641Z,12.27
2019-03-20T06:55:28.126Z,12.50
2019-03-20T06:57:57.619Z,12.60
2019-03-20T07:00:46.414Z,12.75
2019-03-20T07:03:35.116Z,12.84
2019-03-20T07:06:25.024Z,12.73
2019-03-20T07:09:21.324Z,13.15
2019-03-20T07:11:50.815Z,13.27
2019-03-20T07:14:20.472Z,13.22
2019-03-20T07:16:49.963Z,13.56
2019-03-20T07:19:19.647Z,13.79
2019-03-20T07:21:49.300Z,13.95
2019-03-20T07:24:18.703Z,14.05
2019-03-20T07:26:48.261Z,14.08
2019-03-20T07:29:17.824Z,14.15
2019-03-20T07:31:47.292Z,14.32
2019-03-20T07:34:16.763Z,14.29
2019-03-20T07:36:46.234Z,14.43
2019-03-20T07:39:15.737Z,14.29
2019-03-20T07:41:45.156Z,14.85
2019-03-20T07:44:14.599Z,14.67
2019-03-20T07:46:44.148Z,14.81
2019-03-20T07:49:13.628Z,14.61
2019-03-20T07:51:43.117Z,14.65
2019-03-20T07:54:12.565Z,14.75
2019-03-20T07:56:42.036Z,14.81
2019-03-20T07:59:11.467Z,15.06
2019-03-20T08:01:41.063Z,15.38
2019-03-20T08:04:10.596Z,15.54
2019-03-20T08:06:40.055Z,15.97
2019-03-20T08:09:09.640Z,16.00
2019-03-20T08:11:39.159Z,16.10
2019-03-20T08:14:08.620Z,16.21
2019-03-20T08:16:38.150Z,16.63
2019-03-20T08:19:07.646Z,16.82
2019-03-20T08:21:37.280Z,16.78
2019-03-20T08:24:06.823Z,16.82
2019-03-20T08:26:36.405Z,16.92
2019-03-20T08:29:05.877Z,17.24
2019-03-20T08:31:35.329Z,17.33
2019-03-20T08:34:04.839Z,17.65
2019-03-20T08:36:34.271Z,17.44
2019-03-20T08:39:04.743Z,17.70
2019-03-20T08:41:34.249Z,17.70
2019-03-20T08:44:03.717Z,18.12
2019-03-20T08:46:33.248Z,18.00
2019-03-20T08:49:02.828Z,18.14
2019-03-20T08:51:32.314Z,18.03
2019-03-20T08:54:01.833Z,18.35
2019-03-20T08:56:31.269Z,18.43
2019-03-20T08:59:00.784Z,18.67
2019-03-20T09:01:30.479Z,18.94
2019-03-20T09:04:00.104Z,19.22
2019-03-20T09:06:29.594Z,19.24
2019-03-20T09:08:59.069Z,19.31
2019-03-20T09:11:28.504Z,19.48
2019-03-20T09:13:58.110Z,19.66
2019-03-20T09:16:27.802Z,20.00
2019-03-20T09:18:57.323Z,20.01
2019-03-20T09:21:26.830Z,20.17
2019-03-20T09:23:56.400Z,20.58
2019-03-20T09:26:25.829Z,20.53
2019-03-20T09:28:55.280Z,20.82
2019-03-20T09:31:24.788Z,20.64
2019-03-20T09:33:54.474Z,20.80
2019-03-20T09:36:27.056Z,21.11
2019-03-20T09:38:59.238Z,20.96
2019-03-20T09:41:28.696Z,21.04
2019-03-20T09:43:58.169Z,20.99
2019-03-20T09:46:27.693Z,21.16
2019-03-20T09:48:57.254Z,21.47
2019-03-20T09:51:26.806Z,21.42
2019-03-20T09:53:56.220Z,21.54
2019-03-20T09:56:25.720Z,21.95
2019-03-20T09:58:55.315Z,22.19
2019-03-20T10:01:24.853Z,22.40
2019-03-20T10:03:54.302Z,22.26
2019-03-20T10:06:23.792Z,22.34
2019-03-20T10:08:54.315Z,22.92
2019-03-20T10:11:24.083Z,23.08
2019-03-20T10:13:53.545Z,23.08
2019-03-20T10:16:23.107Z,22.62
2019-03-20T10:18:55.789Z,22.85
2019-03-20T10:21:25.265Z,22.85
2019-03-20T10:23:54.774Z,23.15
2019-03-20T10:26:24.240Z,23.34
2019-03-20T10:28:53.717Z,23.57
2019-03-20T10:31:23.253Z,23.71
2019-03-20T10:33:52.675Z,23.76
2019-03-20T10:36:22.118Z,23.55
2019-03-20T10:38:51.713Z,23.63
2019-03-20T10:41:21.103Z,23.72
2019-03-20T10:43:52.340Z,23.63
2019-03-20T10:46:22.005Z,23.63
2019-03-20T10:48:51.428Z,23.10
2019-03-20T10:51:21.410Z,23.10
2019-03-20T10:53:50.873Z,23.02
2019-03-20T10:56:20.305Z,22.81
2019-03-20T10:58:49.742Z,22.81
2019-03-20T11:01:19.232Z,22.66
2019-03-20T11:03:48.725Z,23.13
2019-03-20T11:06:18.451Z,22.85
2019-03-20T11:08:47.998Z,23.78
2019-03-20T11:11:26.985Z,23.78
2019-03-20T11:13:51.790Z,23.98
2019-03-20T11:16:23.336Z,24.26
2019-03-20T11:18:52.550Z,24.53
2019-03-20T11:21:22.151Z,24.49
2019-03-20T11:23:51.663Z,24.44
2019-03-20T11:26:21.161Z,24.63
2019-03-20T11:28:53.358Z,24.63
2019-03-20T11:31:23.028Z,24.78
2019-03-20T11:33:52.529Z,24.98
2019-03-20T11:36:22.009Z,24.05
2019-03-20T11:38:52.996Z,24.12
2019-03-20T11:41:22.455Z,23.91
2019-03-20T11:43:51.856Z,23.58
2019-03-20T11:46:21.763Z,23.91
2019-03-20T11:48:51.140Z,23.99
2019-03-20T11:51:20.604Z,24.63
2019-03-20T11:53:50.193Z,24.26
2019-03-20T11:56:19.791Z,24.29
2019-03-20T11:58:49.268Z,24.29
2019-03-20T12:01:19.033Z,24.62
2019-03-20T12:03:48.812Z,24.62
2019-03-20T12:06:18.527Z,23.46
2019-03-20T12:08:48.128Z,23.74
2019-03-20T12:11:17.549Z,24.20
2019-03-20T12:13:47.151Z,24.68
2019-03-20T12:16:16.662Z,24.68
2019-03-20T12:18:46.157Z,24.66
2019-03-20T12:21:15.709Z,24.93
2019-03-20T12:23:45.238Z,24.42
2019-03-20T12:26:14.729Z,24.56
2019-03-20T12:28:44.212Z,24.56
2019-03-20T12:31:13.702Z,24.40
2019-03-20T12:33:43.281Z,23.44
2019-03-20T12:36:12.946Z,24.12
2019-03-20T12:38:42.409Z,24.25
2019-03-20T12:41:12.007Z,24.95
2019-03-20T12:43:41.636Z,24.24
2019-03-20T12:46:11.150Z,24.47
2019-03-20T12:48:40.690Z,24.52
2019-03-20T12:51:10.222Z,24.52
2019-03-20T12:53:39.696Z,25.29
2019-03-20T12:56:09.257Z,25.29
2019-03-20T12:58:40.355Z,25.28
2019-03-20T13:01:09.839Z,24.96
2019-03-20T13:03:39.347Z,24.63
2019-03-20T13:06:09.094Z,23.88
2019-03-20T13:08:38.819Z,24.43
2019-03-20T13:11:11.015Z,24.03
2019-03-20T13:13:40.564Z,22.88
2019-03-20T13:16:10.313Z,22.88
2019-03-20T13:18:39.802Z,22.48
2019-03-20T13:21:09.246Z,22.85
2019-03-20T13:23:39.007Z,22.85
2019-03-20T13:26:10.031Z,22.30
2019-03-20T13:28:41.189Z,22.25
2019-03-20T13:31:19.274Z,22.47
2019-03-20T13:33:49.325Z,22.61
2019-03-20T13:36:19.194Z,22.70
2019-03-20T13:38:48.688Z,22.86
2019-03-20T13:41:19.493Z,23.35
2019-03-20T13:43:49.046Z,23.83
2019-03-20T13:46:18.653Z,22.71
2019-03-20T13:48:48.092Z,22.71
2019-03-20T13:51:17.703Z,22.59
2019-03-20T13:53:47.262Z,22.34
2019-03-20T13:56:16.875Z,22.18
2019-03-20T13:58:46.322Z,22.04
2019-03-20T14:01:30.252Z,21.36
2019-03-20T14:04:00.072Z,21.09
2019-03-20T14:06:32.481Z,20.91
2019-03-20T14:09:02.054Z,20.83
2019-03-20T14:11:31.503Z,20.65
2019-03-20T14:14:01.070Z,20.96
2019-03-20T14:16:32.662Z,20.95
2019-03-20T14:19:01.851Z,20.94
2019-03-20T14:21:31.362Z,21.05
2019-03-20T14:24:00.922Z,20.98
2019-03-20T14:26:30.459Z,20.65
2019-03-20T14:29:00.050Z,20.74
2019-03-20T14:31:29.465Z,20.66
2019-03-20T14:33:59.040Z,20.80
2019-03-20T14:36:28.441Z,20.50
2019-03-20T14:38:58.004Z,20.63
2019-03-20T14:41:27.596Z,20.64
2019-03-20T14:43:57.208Z,20.46
2019-03-20T14:46:26.629Z,20.34
2019-03-20T14:48:56.178Z,20.03
2019-03-20T14:51:25.810Z,19.89
2019-03-20T14:53:55.358Z,20.10
2019-03-20T14:56:26.176Z,20.14
2019-03-20T14:58:55.691Z,20.41
2019-03-20T15:01:25.263Z,20.59
2019-03-20T15:03:54.921Z,19.77
2019-03-20T15:06:24.453Z,19.71
2019-03-20T15:08:54.011Z,19.77
2019-03-20T15:11:23.549Z,19.68
2019-03-20T15:13:53.193Z,19.65
2019-03-20T15:16:22.662Z,19.69
2019-03-20T15:18:52.319Z,19.49
2019-03-20T15:21:22.244Z,19.59
2019-03-20T15:23:51.889Z,19.35
2019-03-20T15:26:21.411Z,18.84
2019-03-20T15:28:50.917Z,19.09
2019-03-20T15:31:20.344Z,19.14
2019-03-20T15:33:49.839Z,18.66
2019-03-20T15:36:22.598Z,18.48
2019-03-20T15:38:52.040Z,18.25
2019-03-20T15:41:21.627Z,17.95
2019-03-20T15:43:51.083Z,17.70
2019-03-20T15:46:20.832Z,17.46
2019-03-20T15:48:50.290Z,17.45
2019-03-20T15:51:19.922Z,17.26
2019-03-20T15:53:49.377Z,17.20
2019-03-20T15:56:19.038Z,17.14
2019-03-20T15:58:48.544Z,16.92
2019-03-20T16:01:18.042Z,16.78
2019-03-20T16:03:48.373Z,16.55
2019-03-20T16:06:17.858Z,16.34
2019-03-20T16:08:47.323Z,16.14
2019-03-20T16:11:16.823Z,15.89
2019-03-20T16:13:46.275Z,15.77
2019-03-20T16:16:15.839Z,15.76
2019-03-20T16:18:45.363Z,15.49
2019-03-20T16:21:14.894Z,15.44
2019-03-20T16:23:44.370Z,15.29
2019-03-20T16:26:14.067Z,15.32
2019-03-20T16:28:43.490Z,15.22
2019-03-20T16:31:12.997Z,15.13
2019-03-20T16:33:42.456Z,14.89
2019-03-20T16:36:12.004Z,14.79
2019-03-20T16:38:41.463Z,14.75
2019-03-20T16:41:16.878Z,14.62
2019-03-20T16:43:42.086Z,14.53
2019-03-20T16:46:11.529Z,14.47
2019-03-20T16:48:41.006Z,14.52
2019-03-20T16:51:10.591Z,14.37
2019-03-20T16:53:40.169Z,14.28
2019-03-20T16:56:09.632Z,14.15
2019-03-20T16:58:39.303Z,14.19
2019-03-20T17:01:08.732Z,14.11
2019-03-20T17:03:38.202Z,13.99
2019-03-20T17:06:07.686Z,13.91
2019-03-20T17:08:40.089Z,13.86
2019-03-20T17:11:09.598Z,13.70
2019-03-20T17:13:39.071Z,13.63
2019-03-20T17:16:08.521Z,13.54
2019-03-20T17:18:38.222Z,13.53
2019-03-20T17:21:07.740Z,13.51
2019-03-20T17:23:37.236Z,13.55
2019-03-20T17:26:06.693Z,13.51
2019-03-20T17:28:36.270Z,13.49
2019-03-20T17:31:05.994Z,13.39
2019-03-20T17:33:35.392Z,13.39
2019-03-20T17:36:05.244Z,13.26
2019-03-20T17:38:34.931Z,13.23
2019-03-20T17:41:04.465Z,13.16
2019-03-20T17:43:33.963Z,13.12
2019-03-20T17:46:03.528Z,13.10
2019-03-20T17:48:33.006Z,12.96
2019-03-20T17:51:02.508Z,12.83
2019-03-20T17:53:31.941Z,12.88
2019-03-20T17:56:01.532Z,12.78
2019-03-20T17:58:30.984Z,12.76
2019-03-20T18:01:00.437Z,12.74
2019-03-20T18:03:29.963Z,12.58
2019-03-20T18:05:59.426Z,12.49
2019-03-20T18:08:28.914Z,12.46
2019-03-20T18:10:58.438Z,12.39
2019-03-20T18:13:27.943Z,12.39
2019-03-20T18:15:57.458Z,12.25
2019-03-20T18:18:26.927Z,12.12
2019-03-20T18:20:56.441Z,12.06
2019-03-20T18:23:25.883Z,12.05
2019-03-20T18:25:55.387Z,12.03
2019-03-20T18:28:24.936Z,11.96
2019-03-20T18:30:54.521Z,11.96
2019-03-20T18:33:25.176Z,11.92
2019-03-20T18:35:54.602Z,11.96
2019-03-20T18:38:24.060Z,11.98
2019-03-20T18:40:54.612Z,11.88
2019-03-20T18:43:24.124Z,11.89
2019-03-20T18:45:53.571Z,11.91
2019-03-20T18:48:23.041Z,11.99
2019-03-20T18:50:52.492Z,11.98
2019-03-20T18:53:21.971Z,11.94
2019-03-20T18:55:51.437Z,11.90
2019-03-20T18:58:20.950Z,11.86
2019-03-20T19:00:50.601Z,11.90
2019-03-20T19:03:24.856Z,11.86
2019-03-20T19:05:57.201Z,11.98
2019-03-20T19:08:26.824Z,11.94
2019-03-20T19:10:56.372Z,11.96
2019-03-20T19:13:26.936Z,11.94
2019-03-20T19:15:56.383Z,12.01
2019-03-20T19:18:25.878Z,12.05
2019-03-20T19:20:55.338Z,12.05
2019-03-20T19:23:24.857Z,11.98
2019-03-20T19:25:54.333Z,11.91
2019-03-20T19:28:23.786Z,11.92
2019-03-20T19:30:53.218Z,11.80
2019-03-20T19:33:25.417Z,11.85
2019-03-20T19:35:56.348Z,11.75
2019-03-20T19:38:34.562Z,11.77
2019-03-20T19:40:57.166Z,11.77
2019-03-20T19:43:26.694Z,11.80
2019-03-20T19:45:56.226Z,11.73
2019-03-20T19:48:25.691Z,11.76
2019-03-20T19:50:55.152Z,11.70
2019-03-20T19:53:24.597Z,11.71
2019-03-20T19:55:54.085Z,11.58
2019-03-20T19:58:23.545Z,11.56
2019-03-20T20:00:52.987Z,11.61
2019-03-20T20:03:22.441Z,11.55
2019-03-20T20:05:52.943Z,11.61
2019-03-20T20:08:22.301Z,11.60
2019-03-20T20:10:51.792Z,11.49
2019-03-20T20:13:21.323Z,11.47
2019-03-20T20:15:52.428Z,11.41
2019-03-20T20:18:21.959Z,11.38
2019-03-20T20:20:51.472Z,11.36
2019-03-20T20:23:20.944Z,11.37
2019-03-20T20:25:50.446Z,11.33
2019-03-20T20:28:19.896Z,11.31
2019-03-20T20:30:49.363Z,11.19
2019-03-20T20:33:18.827Z,11.07
2019-03-20T20:35:48.282Z,11.11
2019-03-20T20:38:17.766Z,11.03
2019-03-20T20:40:47.170Z,10.97
2019-03-20T20:43:16.610Z,10.96
2019-03-20T20:45:46.050Z,10.95
2019-03-20T20:48:15.465Z,10.86
2019-03-20T20:50:44.902Z,10.85
2019-03-20T20:53:14.348Z,10.86
2019-03-20T20:55:43.828Z,10.86
2019-03-20T20:58:13.291Z,10.75
2019-03-20T21:00:42.746Z,10.58
2019-03-20T21:03:12.284Z,10.38
2019-03-20T21:05:41.755Z,10.14
2019-03-20T21:08:11.232Z,10.02
2019-03-20T21:10:40.681Z,9.89
2019-03-20T21:13:10.149Z,9.83
2019-03-20T21:15:41.526Z,9.73
2019-03-20T21:18:16.615Z,9.57
2019-03-20T21:20:47.688Z,9.54
2019-03-20T21:23:57.039Z,9.38
2019-03-20T21:26:49.883Z,9.06
2019-03-20T21:29:38.677Z,9.08
2019-03-20T21:32:19.977Z,8.93
2019-03-20T21:35:09.969Z,8.94
2019-03-20T21:38:04.973Z,8.85
2019-03-20T21:41:03.279Z,8.79
2019-03-20T21:43:47.591Z,8.73
2019-03-20T21:46:22.612Z,8.70
2019-03-20T21:48:51.991Z,8.74
2019-03-20T21:51:21.421Z,8.73
2019-03-20T21:54:05.819Z,8.72
2019-03-20T21:56:40.712Z,8.75
2019-03-20T21:59:38.804Z,8.67
2019-03-20T22:02:42.564Z,8.65
2019-03-20T22:05:38.854Z,8.62
2019-03-20T22:08:08.239Z,8.74
2019-03-20T22:10:58.363Z,8.65
2019-03-20T22:13:39.803Z,8.57
2019-03-20T22:16:45.224Z,8.59
2019-03-20T22:19:23.177Z,8.55
2019-03-20T22:22:15.021Z,8.62
2019-03-20T22:25:20.190Z,8.67
2019-03-20T22:28:16.669Z,8.74
2019-03-20T22:30:46.037Z,8.74
2019-03-20T22:33:51.996Z,8.81
2019-03-20T22:36:21.448Z,8.87
2019-03-20T22:39:29.400Z,8.81
2019-03-20T22:42:20.010Z,8.79
2019-03-20T22:44:58.344Z,8.64
2019-03-20T22:48:03.955Z,8.65
2019-03-20T22:50:56.766Z,8.67
2019-03-20T22:54:03.019Z,8.65
2019-03-20T22:56:40.879Z,8.64
2019-03-20T22:59:10.315Z,8.64
2019-03-20T23:01:42.708Z,8.59
2019-03-20T23:04:15.059Z,8.66
2019-03-20T23:06:44.498Z,8.69
2019-03-20T23:09:13.969Z,8.65
2019-03-20T23:11:43.449Z,8.74
2019-03-20T23:14:13.012Z,8.76
2019-03-20T23:16:42.467Z,8.80
2019-03-20T23:19:11.889Z,8.89
2019-03-20T23:21:44.075Z,8.95
2019-03-20T23:24:13.546Z,8.92
2019-03-20T23:26:42.987Z,8.95
2019-03-20T23:29:12.454Z,8.90
2019-03-20T23:31:41.990Z,8.85
2019-03-20T23:34:11.424Z,8.78
2019-03-20T23:36:40.869Z,8.74
2019-03-20T23:39:10.331Z,8.78
2019-03-20T23:41:39.680Z,8.76
2019-03-20T23:44:09.049Z,8.75
2019-03-20T23:46:38.501Z,8.79
2019-03-20T23:49:14.088Z,8.65
2019-03-20T23:51:43.585Z,8.60
2019-03-20T23:54:14.520Z,8.56
2019-03-20T23:56:43.970Z,8.52
2019-03-20T23:59:13.536Z,8.54
